sensor_id;sensor_type;location;lat;lon;timestamp;P1;durP1;ratioP1;P2;durP2;ratioP2
18754;SDS011;35061;47.664;9.166;2022-12-07T00:01:28;24.60;;;15.35;;
18754;SDS011;35061;47.664;9.166;2022-12-07T00:03:58;24.85;;;16.00;;
18754;SDS011;35061;47.664;9.166;2022-12-07T00:06:34;26.58;;;15.63;;
18754;SDS011;35061;47.664;9.166;2022-12-07T00:09:04;24.75;;;15.45;;
18754;SDS011;35061;47.664;9.166;2022-12-07T00:11:33;21.83;;;15.02;;
18754;SDS011;35061;47.664;9.166;2022-12-07T00:14:02;24.37;;;16.25;;
18754;SDS011;35061;47.664;9.166;2022-12-07T00:16:33;27.45;;;16.17;;
18754;SDS011;35061;47.664;9.166;2022-12-07T00:19:02;28.30;;;15.38;;
18754;SDS011;35061;47.664;9.166;2022-12-07T00:21:31;25.15;;;16.23;;
18754;SDS011;35061;47.664;9.166;2022-12-07T00:24:00;25.40;;;15.70;;
18754;SDS011;35061;47.664;9.166;2022-12-07T00:26:38;26.05;;;16.45;;
18754;SDS011;35061;47.664;9.166;2022-12-07T00:29:10;27.65;;;17.70;;
18754;SDS011;35061;47.664;9.166;2022-12-07T00:31:42;25.35;;;16.55;;
18754;SDS011;35061;47.664;9.166;2022-12-07T00:34:17;24.20;;;14.40;;
18754;SDS011;35061;47.664;9.166;2022-12-07T00:36:47;27.90;;;16.23;;
18754;SDS011;35061;47.664;9.166;2022-12-07T00:39:16;22.35;;;15.10;;
18754;SDS011;35061;47.664;9.166;2022-12-07T00:41:44;24.65;;;15.35;;
18754;SDS011;35061;47.664;9.166;2022-12-07T00:44:12;24.77;;;16.02;;
18754;SDS011;35061;47.664;9.166;2022-12-07T00:46:40;24.70;;;15.48;;
18754;SDS011;35061;47.664;9.166;2022-12-07T00:49:07;26.33;;;15.65;;
18754;SDS011;35061;47.664;9.166;2022-12-07T00:51:35;24.90;;;15.95;;
18754;SDS011;35061;47.664;9.166;2022-12-07T00:54:03;32.67;;;17.23;;
18754;SDS011;35061;47.664;9.166;2022-12-07T00:56:30;23.75;;;14.50;;
18754;SDS011;35061;47.664;9.166;2022-12-07T00:59:02;27.60;;;16.25;;
18754;SDS011;35061;47.664;9.166;2022-12-07T01:01:32;25.85;;;15.15;;
18754;SDS011;35061;47.664;9.166;2022-12-07T01:04:01;28.33;;;17.15;;
18754;SDS011;35061;47.664;9.166;2022-12-07T01:06:30;25.65;;;15.35;;
18754;SDS011;35061;47.664;9.166;2022-12-07T01:08:59;29.83;;;17.65;;
18754;SDS011;35061;47.664;9.166;2022-12-07T01:11:27;24.23;;;15.35;;
18754;SDS011;35061;47.664;9.166;2022-12-07T01:13:57;25.88;;;16.50;;
18754;SDS011;35061;47.664;9.166;2022-12-07T01:16:28;24.10;;;15.07;;
18754;SDS011;35061;47.664;9.166;2022-12-07T01:18:57;22.83;;;14.63;;
18754;SDS011;35061;47.664;9.166;2022-12-07T01:21:27;25.08;;;15.20;;
18754;SDS011;35061;47.664;9.166;2022-12-07T01:23:56;21.42;;;13.62;;
18754;SDS011;35061;47.664;9.166;2022-12-07T01:26:25;22.17;;;13.98;;
18754;SDS011;35061;47.664;9.166;2022-12-07T01:28:53;24.42;;;15.20;;
18754;SDS011;35061;47.664;9.166;2022-12-07T01:31:23;22.62;;;13.93;;
18754;SDS011;35061;47.664;9.166;2022-12-07T01:33:54;23.02;;;14.32;;
18754;SDS011;35061;47.664;9.166;2022-12-07T01:36:27;26.40;;;17.23;;
18754;SDS011;35061;47.664;9.166;2022-12-07T01:38:57;24.35;;;15.88;;
18754;SDS011;35061;47.664;9.166;2022-12-07T01:41:28;21.67;;;14.75;;
18754;SDS011;35061;47.664;9.166;2022-12-07T01:44:09;25.45;;;15.23;;
18754;SDS011;35061;47.664;9.166;2022-12-07T01:46:40;26.33;;;15.93;;
18754;SDS011;35061;47.664;9.166;2022-12-07T01:49:14;26.48;;;17.62;;
18754;SDS011;35061;47.664;9.166;2022-12-07T01:51:47;23.92;;;15.82;;
18754;SDS011;35061;47.664;9.166;2022-12-07T01:54:16;23.60;;;14.48;;
18754;SDS011;35061;47.664;9.166;2022-12-07T01:56:47;22.62;;;14.73;;
18754;SDS011;35061;47.664;9.166;2022-12-07T01:59:21;23.77;;;14.70;;
18754;SDS011;35061;47.664;9.166;2022-12-07T02:01:53;23.83;;;15.10;;
18754;SDS011;35061;47.664;9.166;2022-12-07T02:04:22;23.40;;;15.20;;
18754;SDS011;35061;47.664;9.166;2022-12-07T02:06:50;25.73;;;16.65;;
18754;SDS011;35061;47.664;9.166;2022-12-07T02:09:19;27.90;;;16.27;;
18754;SDS011;35061;47.664;9.166;2022-12-07T02:11:46;27.00;;;16.50;;
18754;SDS011;35061;47.664;9.166;2022-12-07T02:14:14;28.65;;;16.27;;
18754;SDS011;35061;47.664;9.166;2022-12-07T02:30:42;24.83;;;16.25;;
18754;SDS011;35061;47.664;9.166;2022-12-07T02:33:19;22.73;;;15.35;;
18754;SDS011;35061;47.664;9.166;2022-12-07T02:35:59;20.73;;;14.00;;
18754;SDS011;35061;47.664;9.166;2022-12-07T02:38:37;23.73;;;15.88;;
18754;SDS011;35061;47.664;9.166;2022-12-07T02:41:22;24.23;;;14.80;;
18754;SDS011;35061;47.664;9.166;2022-12-07T02:43:59;21.85;;;13.38;;
18754;SDS011;35061;47.664;9.166;2022-12-07T02:46:36;21.52;;;14.73;;
18754;SDS011;35061;47.664;9.166;2022-12-07T02:49:08;22.87;;;14.43;;
18754;SDS011;35061;47.664;9.166;2022-12-07T02:51:41;22.95;;;14.63;;
18754;SDS011;35061;47.664;9.166;2022-12-07T02:54:13;25.85;;;15.07;;
18754;SDS011;35061;47.664;9.166;2022-12-07T03:15:55;24.58;;;15.25;;
18754;SDS011;35061;47.664;9.166;2022-12-07T03:18:25;22.98;;;15.70;;
18754;SDS011;35061;47.664;9.166;2022-12-07T03:20:59;28.12;;;16.90;;
18754;SDS011;35061;47.664;9.166;2022-12-07T03:23:29;25.15;;;15.55;;
18754;SDS011;35061;47.664;9.166;2022-12-07T03:26:01;24.37;;;16.48;;
18754;SDS011;35061;47.664;9.166;2022-12-07T03:28:33;25.58;;;16.30;;
18754;SDS011;35061;47.664;9.166;2022-12-07T03:33:54;27.85;;;16.60;;
18754;SDS011;35061;47.664;9.166;2022-12-07T03:41:58;24.25;;;15.68;;
18754;SDS011;35061;47.664;9.166;2022-12-07T03:44:29;28.60;;;17.55;;
18754;SDS011;35061;47.664;9.166;2022-12-07T03:47:01;29.83;;;17.98;;
18754;SDS011;35061;47.664;9.166;2022-12-07T03:49:37;26.83;;;16.15;;
18754;SDS011;35061;47.664;9.166;2022-12-07T03:54:39;26.10;;;17.37;;
18754;SDS011;35061;47.664;9.166;2022-12-07T03:57:12;25.17;;;15.98;;
18754;SDS011;35061;47.664;9.166;2022-12-07T03:59:40;26.77;;;15.88;;
18754;SDS011;35061;47.664;9.166;2022-12-07T04:02:11;30.62;;;16.73;;
18754;SDS011;35061;47.664;9.166;2022-12-07T04:04:40;27.70;;;17.50;;
18754;SDS011;35061;47.664;9.166;2022-12-07T04:07:09;26.17;;;16.12;;
18754;SDS011;35061;47.664;9.166;2022-12-07T04:09:38;31.65;;;18.37;;
18754;SDS011;35061;47.664;9.166;2022-12-07T04:12:06;25.30;;;15.75;;
18754;SDS011;35061;47.664;9.166;2022-12-07T04:14:34;27.08;;;14.80;;
18754;SDS011;35061;47.664;9.166;2022-12-07T04:17:02;28.02;;;16.35;;
18754;SDS011;35061;47.664;9.166;2022-12-07T04:19:31;24.83;;;16.30;;
18754;SDS011;35061;47.664;9.166;2022-12-07T04:22:01;28.58;;;18.00;;
18754;SDS011;35061;47.664;9.166;2022-12-07T04:24:30;26.52;;;16.45;;
18754;SDS011;35061;47.664;9.166;2022-12-07T04:26:59;28.50;;;17.05;;
18754;SDS011;35061;47.664;9.166;2022-12-07T04:29:26;28.50;;;17.02;;
18754;SDS011;35061;47.664;9.166;2022-12-07T04:31:55;26.02;;;16.33;;
18754;SDS011;35061;47.664;9.166;2022-12-07T04:34:22;28.83;;;16.45;;
18754;SDS011;35061;47.664;9.166;2022-12-07T04:36:50;29.35;;;17.12;;
18754;SDS011;35061;47.664;9.166;2022-12-07T04:39:19;24.30;;;14.90;;
18754;SDS011;35061;47.664;9.166;2022-12-07T04:41:50;28.30;;;17.25;;
18754;SDS011;35061;47.664;9.166;2022-12-07T04:44:19;24.63;;;15.63;;
18754;SDS011;35061;47.664;9.166;2022-12-07T04:46:47;28.40;;;17.95;;
18754;SDS011;35061;47.664;9.166;2022-12-07T04:49:15;29.15;;;17.35;;
18754;SDS011;35061;47.664;9.166;2022-12-07T04:51:43;27.15;;;17.15;;
18754;SDS011;35061;47.664;9.166;2022-12-07T04:54:12;25.02;;;15.48;;
18754;SDS011;35061;47.664;9.166;2022-12-07T04:56:40;31.42;;;17.15;;
18754;SDS011;35061;47.664;9.166;2022-12-07T04:59:09;29.80;;;18.30;;
18754;SDS011;35061;47.664;9.166;2022-12-07T05:01:38;25.20;;;15.85;;
18754;SDS011;35061;47.664;9.166;2022-12-07T05:04:06;23.90;;;15.90;;
18754;SDS011;35061;47.664;9.166;2022-12-07T05:06:34;32.25;;;17.67;;
18754;SDS011;35061;47.664;9.166;2022-12-07T05:09:02;27.52;;;16.83;;
18754;SDS011;35061;47.664;9.166;2022-12-07T05:11:31;30.52;;;17.65;;
18754;SDS011;35061;47.664;9.166;2022-12-07T05:14:09;26.77;;;16.67;;
18754;SDS011;35061;47.664;9.166;2022-12-07T05:16:39;27.48;;;17.40;;
18754;SDS011;35061;47.664;9.166;2022-12-07T05:19:09;23.62;;;15.27;;
18754;SDS011;35061;47.664;9.166;2022-12-07T05:21:37;27.23;;;16.45;;
18754;SDS011;35061;47.664;9.166;2022-12-07T05:24:06;31.20;;;17.23;;
18754;SDS011;35061;47.664;9.166;2022-12-07T05:26:35;27.90;;;16.67;;
18754;SDS011;35061;47.664;9.166;2022-12-07T05:29:03;28.08;;;16.98;;
18754;SDS011;35061;47.664;9.166;2022-12-07T05:31:31;30.25;;;16.60;;
18754;SDS011;35061;47.664;9.166;2022-12-07T05:33:59;31.77;;;18.90;;
18754;SDS011;35061;47.664;9.166;2022-12-07T05:36:26;27.92;;;16.50;;
18754;SDS011;35061;47.664;9.166;2022-12-07T05:38:55;28.27;;;17.85;;
18754;SDS011;35061;47.664;9.166;2022-12-07T05:41:23;30.37;;;17.40;;
18754;SDS011;35061;47.664;9.166;2022-12-07T05:44:10;27.23;;;16.85;;
18754;SDS011;35061;47.664;9.166;2022-12-07T05:46:37;24.02;;;15.65;;
18754;SDS011;35061;47.664;9.166;2022-12-07T05:49:05;30.92;;;17.73;;
18754;SDS011;35061;47.664;9.166;2022-12-07T05:51:33;26.73;;;15.60;;
18754;SDS011;35061;47.664;9.166;2022-12-07T05:54:00;25.33;;;16.27;;
18754;SDS011;35061;47.664;9.166;2022-12-07T05:56:28;27.60;;;16.92;;
18754;SDS011;35061;47.664;9.166;2022-12-07T05:58:56;32.78;;;17.48;;
18754;SDS011;35061;47.664;9.166;2022-12-07T06:01:42;34.00;;;19.60;;
18754;SDS011;35061;47.664;9.166;2022-12-07T06:04:10;26.37;;;15.98;;
18754;SDS011;35061;47.664;9.166;2022-12-07T06:06:38;27.77;;;16.95;;
18754;SDS011;35061;47.664;9.166;2022-12-07T06:09:06;29.20;;;16.25;;
18754;SDS011;35061;47.664;9.166;2022-12-07T06:11:34;29.05;;;17.00;;
18754;SDS011;35061;47.664;9.166;2022-12-07T06:14:20;29.15;;;15.95;;
18754;SDS011;35061;47.664;9.166;2022-12-07T06:16:48;30.42;;;16.92;;
18754;SDS011;35061;47.664;9.166;2022-12-07T06:19:16;31.33;;;16.27;;
18754;SDS011;35061;47.664;9.166;2022-12-07T06:21:44;27.60;;;15.98;;
18754;SDS011;35061;47.664;9.166;2022-12-07T06:24:12;26.95;;;16.05;;
18754;SDS011;35061;47.664;9.166;2022-12-07T06:26:41;28.20;;;14.80;;
18754;SDS011;35061;47.664;9.166;2022-12-07T06:29:09;27.70;;;15.80;;
18754;SDS011;35061;47.664;9.166;2022-12-07T06:31:38;26.75;;;16.48;;
18754;SDS011;35061;47.664;9.166;2022-12-07T06:34:08;25.95;;;16.00;;
18754;SDS011;35061;47.664;9.166;2022-12-07T06:36:38;30.17;;;15.98;;
18754;SDS011;35061;47.664;9.166;2022-12-07T06:39:06;26.42;;;16.60;;
18754;SDS011;35061;47.664;9.166;2022-12-07T06:41:36;24.60;;;15.55;;
18754;SDS011;35061;47.664;9.166;2022-12-07T06:44:05;25.50;;;16.20;;
18754;SDS011;35061;47.664;9.166;2022-12-07T06:46:33;24.25;;;15.20;;
18754;SDS011;35061;47.664;9.166;2022-12-07T06:49:03;29.83;;;16.20;;
18754;SDS011;35061;47.664;9.166;2022-12-07T06:51:32;24.92;;;15.68;;
18754;SDS011;35061;47.664;9.166;2022-12-07T06:54:03;23.75;;;15.10;;
18754;SDS011;35061;47.664;9.166;2022-12-07T06:56:31;28.23;;;17.45;;
18754;SDS011;35061;47.664;9.166;2022-12-07T06:58:58;26.00;;;15.50;;
18754;SDS011;35061;47.664;9.166;2022-12-07T07:01:26;25.60;;;15.20;;
18754;SDS011;35061;47.664;9.166;2022-12-07T07:03:54;26.92;;;15.95;;
18754;SDS011;35061;47.664;9.166;2022-12-07T07:06:22;25.35;;;16.27;;
18754;SDS011;35061;47.664;9.166;2022-12-07T07:08:50;23.12;;;14.87;;
18754;SDS011;35061;47.664;9.166;2022-12-07T07:11:18;26.17;;;16.17;;
18754;SDS011;35061;47.664;9.166;2022-12-07T07:13:46;23.58;;;15.32;;
18754;SDS011;35061;47.664;9.166;2022-12-07T07:16:14;26.30;;;15.98;;
18754;SDS011;35061;47.664;9.166;2022-12-07T07:18:42;23.67;;;14.82;;
18754;SDS011;35061;47.664;9.166;2022-12-07T07:21:09;23.23;;;14.60;;
18754;SDS011;35061;47.664;9.166;2022-12-07T07:23:37;22.73;;;14.38;;
18754;SDS011;35061;47.664;9.166;2022-12-07T07:26:05;25.52;;;16.92;;
18754;SDS011;35061;47.664;9.166;2022-12-07T07:28:32;29.92;;;17.75;;
18754;SDS011;35061;47.664;9.166;2022-12-07T07:31:00;26.20;;;16.95;;
18754;SDS011;35061;47.664;9.166;2022-12-07T07:33:28;26.35;;;15.68;;
18754;SDS011;35061;47.664;9.166;2022-12-07T07:35:56;28.23;;;16.23;;
18754;SDS011;35061;47.664;9.166;2022-12-07T07:38:23;24.20;;;15.40;;
18754;SDS011;35061;47.664;9.166;2022-12-07T07:40:51;24.85;;;16.10;;
18754;SDS011;35061;47.664;9.166;2022-12-07T07:43:19;26.23;;;16.23;;
18754;SDS011;35061;47.664;9.166;2022-12-07T07:45:46;24.23;;;14.75;;
18754;SDS011;35061;47.664;9.166;2022-12-07T07:48:14;28.20;;;16.27;;
18754;SDS011;35061;47.664;9.166;2022-12-07T07:50:42;25.60;;;15.82;;
18754;SDS011;35061;47.664;9.166;2022-12-07T07:53:10;26.40;;;15.68;;
18754;SDS011;35061;47.664;9.166;2022-12-07T07:55:37;29.30;;;15.77;;
18754;SDS011;35061;47.664;9.166;2022-12-07T07:58:05;24.25;;;14.70;;
18754;SDS011;35061;47.664;9.166;2022-12-07T08:00:33;22.95;;;14.90;;
18754;SDS011;35061;47.664;9.166;2022-12-07T08:03:00;28.80;;;17.02;;
18754;SDS011;35061;47.664;9.166;2022-12-07T08:05:28;27.55;;;16.08;;
18754;SDS011;35061;47.664;9.166;2022-12-07T08:07:57;29.10;;;16.70;;
18754;SDS011;35061;47.664;9.166;2022-12-07T08:10:24;25.42;;;15.10;;
18754;SDS011;35061;47.664;9.166;2022-12-07T08:12:52;23.73;;;16.00;;
18754;SDS011;35061;47.664;9.166;2022-12-07T08:15:39;25.05;;;15.57;;
18754;SDS011;35061;47.664;9.166;2022-12-07T08:18:08;23.70;;;15.85;;
18754;SDS011;35061;47.664;9.166;2022-12-07T08:20:36;25.95;;;16.15;;
18754;SDS011;35061;47.664;9.166;2022-12-07T08:23:05;26.52;;;16.00;;
18754;SDS011;35061;47.664;9.166;2022-12-07T08:25:34;23.55;;;15.50;;
18754;SDS011;35061;47.664;9.166;2022-12-07T08:28:02;26.00;;;15.73;;
18754;SDS011;35061;47.664;9.166;2022-12-07T08:30:30;28.50;;;17.83;;
18754;SDS011;35061;47.664;9.166;2022-12-07T08:32:58;23.45;;;15.30;;
18754;SDS011;35061;47.664;9.166;2022-12-07T08:35:26;23.30;;;15.23;;
18754;SDS011;35061;47.664;9.166;2022-12-07T08:37:54;28.30;;;17.10;;
18754;SDS011;35061;47.664;9.166;2022-12-07T08:40:21;23.17;;;14.77;;
18754;SDS011;35061;47.664;9.166;2022-12-07T08:42:50;27.42;;;17.80;;
18754;SDS011;35061;47.664;9.166;2022-12-07T08:45:18;26.27;;;16.00;;
18754;SDS011;35061;47.664;9.166;2022-12-07T08:50:24;25.17;;;15.27;;
18754;SDS011;35061;47.664;9.166;2022-12-07T08:52:52;21.98;;;14.68;;
18754;SDS011;35061;47.664;9.166;2022-12-07T08:55:24;25.92;;;15.13;;
18754;SDS011;35061;47.664;9.166;2022-12-07T08:57:52;27.10;;;15.80;;
18754;SDS011;35061;47.664;9.166;2022-12-07T09:00:20;22.67;;;15.23;;
18754;SDS011;35061;47.664;9.166;2022-12-07T09:02:48;24.65;;;15.00;;
18754;SDS011;35061;47.664;9.166;2022-12-07T09:05:16;22.45;;;14.20;;
18754;SDS011;35061;47.664;9.166;2022-12-07T09:07:44;20.58;;;13.73;;
18754;SDS011;35061;47.664;9.166;2022-12-07T09:10:15;22.62;;;14.10;;
18754;SDS011;35061;47.664;9.166;2022-12-07T09:12:43;24.48;;;14.60;;
18754;SDS011;35061;47.664;9.166;2022-12-07T09:15:10;21.50;;;14.20;;
18754;SDS011;35061;47.664;9.166;2022-12-07T09:17:38;24.33;;;15.38;;
18754;SDS011;35061;47.664;9.166;2022-12-07T09:20:06;26.27;;;16.15;;
18754;SDS011;35061;47.664;9.166;2022-12-07T09:22:34;27.37;;;16.27;;
18754;SDS011;35061;47.664;9.166;2022-12-07T09:25:03;24.95;;;15.40;;
18754;SDS011;35061;47.664;9.166;2022-12-07T09:27:31;25.30;;;14.85;;
18754;SDS011;35061;47.664;9.166;2022-12-07T09:29:59;22.95;;;15.40;;
18754;SDS011;35061;47.664;9.166;2022-12-07T09:32:27;22.98;;;13.73;;
18754;SDS011;35061;47.664;9.166;2022-12-07T09:34:55;23.67;;;15.27;;
18754;SDS011;35061;47.664;9.166;2022-12-07T09:37:23;22.83;;;14.15;;
18754;SDS011;35061;47.664;9.166;2022-12-07T09:39:51;22.25;;;14.80;;
18754;SDS011;35061;47.664;9.166;2022-12-07T09:42:26;24.45;;;14.60;;
18754;SDS011;35061;47.664;9.166;2022-12-07T09:44:57;23.98;;;14.98;;
18754;SDS011;35061;47.664;9.166;2022-12-07T09:47:26;25.20;;;15.48;;
18754;SDS011;35061;47.664;9.166;2022-12-07T09:49:55;26.92;;;15.48;;
18754;SDS011;35061;47.664;9.166;2022-12-07T09:52:47;21.85;;;13.95;;
18754;SDS011;35061;47.664;9.166;2022-12-07T09:55:19;22.92;;;13.60;;
18754;SDS011;35061;47.664;9.166;2022-12-07T09:57:54;21.95;;;13.88;;
18754;SDS011;35061;47.664;9.166;2022-12-07T10:00:23;20.27;;;13.23;;
18754;SDS011;35061;47.664;9.166;2022-12-07T10:02:56;24.23;;;14.85;;
18754;SDS011;35061;47.664;9.166;2022-12-07T10:05:46;19.02;;;12.45;;
18754;SDS011;35061;47.664;9.166;2022-12-07T10:08:15;16.83;;;11.90;;
18754;SDS011;35061;47.664;9.166;2022-12-07T10:10:45;19.92;;;12.73;;
18754;SDS011;35061;47.664;9.166;2022-12-07T10:13:22;20.85;;;13.35;;
18754;SDS011;35061;47.664;9.166;2022-12-07T10:16:01;20.83;;;13.00;;
18754;SDS011;35061;47.664;9.166;2022-12-07T10:18:37;21.27;;;13.43;;
18754;SDS011;35061;47.664;9.166;2022-12-07T10:24:04;21.87;;;13.98;;
18754;SDS011;35061;47.664;9.166;2022-12-07T10:26:32;21.23;;;13.77;;
18754;SDS011;35061;47.664;9.166;2022-12-07T10:29:20;21.23;;;13.60;;
18754;SDS011;35061;47.664;9.166;2022-12-07T10:31:57;22.55;;;13.43;;
18754;SDS011;35061;47.664;9.166;2022-12-07T10:34:36;21.92;;;12.95;;
18754;SDS011;35061;47.664;9.166;2022-12-07T10:39:53;19.27;;;12.75;;
18754;SDS011;35061;47.664;9.166;2022-12-07T10:47:43;22.13;;;12.68;;
18754;SDS011;35061;47.664;9.166;2022-12-07T10:58:59;22.75;;;12.95;;
18754;SDS011;35061;47.664;9.166;2022-12-07T11:07:38;17.95;;;11.65;;
18754;SDS011;35061;47.664;9.166;2022-12-07T11:18:28;18.62;;;11.43;;
18754;SDS011;35061;47.664;9.166;2022-12-07T11:21:13;21.80;;;12.55;;
18754;SDS011;35061;47.664;9.166;2022-12-07T11:23:49;19.12;;;11.00;;
18754;SDS011;35061;47.664;9.166;2022-12-07T11:27:07;16.60;;;10.68;;
18754;SDS011;35061;47.664;9.166;2022-12-07T11:29:39;17.40;;;10.93;;
18754;SDS011;35061;47.664;9.166;2022-12-07T11:32:51;15.23;;;9.27;;
18754;SDS011;35061;47.664;9.166;2022-12-07T11:38:23;13.32;;;9.18;;
18754;SDS011;35061;47.664;9.166;2022-12-07T11:40:58;11.12;;;8.45;;
18754;SDS011;35061;47.664;9.166;2022-12-07T11:46:20;13.68;;;7.87;;
18754;SDS011;35061;47.664;9.166;2022-12-07T11:48:58;11.48;;;7.68;;
18754;SDS011;35061;47.664;9.166;2022-12-07T11:51:36;9.38;;;6.70;;
18754;SDS011;35061;47.664;9.166;2022-12-07T11:54:17;9.68;;;7.15;;
18754;SDS011;35061;47.664;9.166;2022-12-07T11:56:49;9.35;;;7.35;;
18754;SDS011;35061;47.664;9.166;2022-12-07T12:01:56;9.25;;;7.43;;
18754;SDS011;35061;47.664;9.166;2022-12-07T12:07:43;10.43;;;7.20;;
18754;SDS011;35061;47.664;9.166;2022-12-07T12:16:48;7.95;;;5.32;;
18754;SDS011;35061;47.664;9.166;2022-12-07T12:19:59;6.93;;;6.00;;
18754;SDS011;35061;47.664;9.166;2022-12-07T12:22:39;7.20;;;5.18;;
18754;SDS011;35061;47.664;9.166;2022-12-07T12:25:18;8.48;;;5.03;;
18754;SDS011;35061;47.664;9.166;2022-12-07T12:27:50;6.20;;;4.87;;
18754;SDS011;35061;47.664;9.166;2022-12-07T12:30:38;6.90;;;5.18;;
18754;SDS011;35061;47.664;9.166;2022-12-07T12:33:14;8.00;;;5.78;;
18754;SDS011;35061;47.664;9.166;2022-12-07T12:51:51;7.12;;;5.55;;
18754;SDS011;35061;47.664;9.166;2022-12-07T12:54:23;6.68;;;5.53;;
18754;SDS011;35061;47.664;9.166;2022-12-07T12:57:19;8.07;;;5.90;;
18754;SDS011;35061;47.664;9.166;2022-12-07T13:02:36;6.60;;;5.15;;
18754;SDS011;35061;47.664;9.166;2022-12-07T13:15:55;6.97;;;5.00;;
18754;SDS011;35061;47.664;9.166;2022-12-07T13:18:42;7.93;;;5.20;;
18754;SDS011;35061;47.664;9.166;2022-12-07T13:29:13;7.28;;;5.40;;
18754;SDS011;35061;47.664;9.166;2022-12-07T13:31:51;7.40;;;5.30;;
18754;SDS011;35061;47.664;9.166;2022-12-07T13:34:32;5.68;;;5.12;;
18754;SDS011;35061;47.664;9.166;2022-12-07T13:37:00;8.05;;;5.10;;
18754;SDS011;35061;47.664;9.166;2022-12-07T13:39:32;6.78;;;5.70;;
18754;SDS011;35061;47.664;9.166;2022-12-07T13:42:07;8.73;;;5.55;;
18754;SDS011;35061;47.664;9.166;2022-12-07T13:44:42;8.80;;;6.70;;
18754;SDS011;35061;47.664;9.166;2022-12-07T13:47:16;8.88;;;6.28;;
18754;SDS011;35061;47.664;9.166;2022-12-07T13:50:00;8.18;;;6.57;;
18754;SDS011;35061;47.664;9.166;2022-12-07T13:52:29;7.57;;;6.43;;
18754;SDS011;35061;47.664;9.166;2022-12-07T13:57:33;8.15;;;6.15;;
18754;SDS011;35061;47.664;9.166;2022-12-07T14:00:03;9.05;;;6.20;;
18754;SDS011;35061;47.664;9.166;2022-12-07T14:02:34;8.82;;;6.32;;
18754;SDS011;35061;47.664;9.166;2022-12-07T14:05:13;12.35;;;8.85;;
18754;SDS011;35061;47.664;9.166;2022-12-07T14:08:04;12.07;;;8.02;;
18754;SDS011;35061;47.664;9.166;2022-12-07T14:13:24;13.35;;;8.57;;
18754;SDS011;35061;47.664;9.166;2022-12-07T14:16:03;11.82;;;8.32;;
18754;SDS011;35061;47.664;9.166;2022-12-07T14:18:46;11.65;;;8.65;;
18754;SDS011;35061;47.664;9.166;2022-12-07T14:21:18;11.68;;;8.57;;
18754;SDS011;35061;47.664;9.166;2022-12-07T14:26:37;11.90;;;8.27;;
18754;SDS011;35061;47.664;9.166;2022-12-07T14:29:19;14.50;;;9.00;;
18754;SDS011;35061;47.664;9.166;2022-12-07T14:31:53;12.98;;;9.63;;
18754;SDS011;35061;47.664;9.166;2022-12-07T14:34:22;13.93;;;10.25;;
18754;SDS011;35061;47.664;9.166;2022-12-07T14:36:50;12.48;;;8.85;;
18754;SDS011;35061;47.664;9.166;2022-12-07T14:39:18;13.23;;;9.55;;
18754;SDS011;35061;47.664;9.166;2022-12-07T14:41:46;14.57;;;10.27;;
18754;SDS011;35061;47.664;9.166;2022-12-07T14:44:21;12.77;;;9.30;;
18754;SDS011;35061;47.664;9.166;2022-12-07T14:46:59;12.20;;;9.38;;
18754;SDS011;35061;47.664;9.166;2022-12-07T14:49:46;15.07;;;10.20;;
18754;SDS011;35061;47.664;9.166;2022-12-07T14:52:15;11.55;;;8.98;;
18754;SDS011;35061;47.664;9.166;2022-12-07T14:55:12;12.37;;;8.73;;
18754;SDS011;35061;47.664;9.166;2022-12-07T14:57:41;12.02;;;8.80;;
18754;SDS011;35061;47.664;9.166;2022-12-07T15:00:13;13.75;;;9.48;;
18754;SDS011;35061;47.664;9.166;2022-12-07T15:02:41;13.48;;;9.45;;
18754;SDS011;35061;47.664;9.166;2022-12-07T15:05:09;13.18;;;8.90;;
18754;SDS011;35061;47.664;9.166;2022-12-07T15:07:41;12.70;;;9.27;;
18754;SDS011;35061;47.664;9.166;2022-12-07T15:10:14;14.13;;;10.02;;
18754;SDS011;35061;47.664;9.166;2022-12-07T15:12:50;16.52;;;10.40;;
18754;SDS011;35061;47.664;9.166;2022-12-07T15:15:18;14.48;;;9.60;;
18754;SDS011;35061;47.664;9.166;2022-12-07T15:17:45;14.77;;;10.20;;
18754;SDS011;35061;47.664;9.166;2022-12-07T15:20:14;14.55;;;10.05;;
18754;SDS011;35061;47.664;9.166;2022-12-07T15:22:44;14.35;;;10.48;;
18754;SDS011;35061;47.664;9.166;2022-12-07T15:25:14;16.52;;;10.40;;
18754;SDS011;35061;47.664;9.166;2022-12-07T15:27:42;16.67;;;10.48;;
18754;SDS011;35061;47.664;9.166;2022-12-07T15:30:10;13.75;;;10.05;;
18754;SDS011;35061;47.664;9.166;2022-12-07T15:32:38;15.63;;;10.65;;
18754;SDS011;35061;47.664;9.166;2022-12-07T15:35:06;15.00;;;11.10;;
18754;SDS011;35061;47.664;9.166;2022-12-07T15:37:34;15.18;;;10.57;;
18754;SDS011;35061;47.664;9.166;2022-12-07T15:40:01;17.67;;;11.18;;
18754;SDS011;35061;47.664;9.166;2022-12-07T15:42:33;15.73;;;11.30;;
18754;SDS011;35061;47.664;9.166;2022-12-07T15:45:02;15.13;;;10.43;;
18754;SDS011;35061;47.664;9.166;2022-12-07T15:50:25;16.30;;;11.10;;
18754;SDS011;35061;47.664;9.166;2022-12-07T15:52:53;18.02;;;11.60;;
18754;SDS011;35061;47.664;9.166;2022-12-07T15:55:20;15.05;;;11.10;;
18754;SDS011;35061;47.664;9.166;2022-12-07T15:57:48;17.23;;;12.63;;
18754;SDS011;35061;47.664;9.166;2022-12-07T16:00:16;19.62;;;12.02;;
18754;SDS011;35061;47.664;9.166;2022-12-07T16:02:45;17.52;;;12.75;;
18754;SDS011;35061;47.664;9.166;2022-12-07T16:05:12;17.83;;;12.35;;
18754;SDS011;35061;47.664;9.166;2022-12-07T16:07:40;18.35;;;12.15;;
18754;SDS011;35061;47.664;9.166;2022-12-07T16:10:08;19.85;;;12.35;;
18754;SDS011;35061;47.664;9.166;2022-12-07T16:12:36;17.20;;;11.50;;
18754;SDS011;35061;47.664;9.166;2022-12-07T16:15:04;19.73;;;13.00;;
18754;SDS011;35061;47.664;9.166;2022-12-07T16:17:32;16.95;;;11.63;;
18754;SDS011;35061;47.664;9.166;2022-12-07T16:20:00;21.00;;;12.27;;
18754;SDS011;35061;47.664;9.166;2022-12-07T16:22:28;18.33;;;11.80;;
18754;SDS011;35061;47.664;9.166;2022-12-07T16:24:55;18.27;;;12.30;;
18754;SDS011;35061;47.664;9.166;2022-12-07T16:27:23;15.25;;;10.43;;
18754;SDS011;35061;47.664;9.166;2022-12-07T16:29:51;15.85;;;10.82;;
18754;SDS011;35061;47.664;9.166;2022-12-07T16:32:19;18.40;;;11.55;;
18754;SDS011;35061;47.664;9.166;2022-12-07T16:34:46;19.80;;;11.68;;
18754;SDS011;35061;47.664;9.166;2022-12-07T16:37:15;18.60;;;12.23;;
18754;SDS011;35061;47.664;9.166;2022-12-07T16:39:42;18.20;;;12.00;;
18754;SDS011;35061;47.664;9.166;2022-12-07T16:42:10;16.15;;;11.93;;
18754;SDS011;35061;47.664;9.166;2022-12-07T16:44:38;19.15;;;12.80;;
18754;SDS011;35061;47.664;9.166;2022-12-07T16:47:06;22.58;;;14.32;;
18754;SDS011;35061;47.664;9.166;2022-12-07T16:49:34;23.95;;;15.10;;
18754;SDS011;35061;47.664;9.166;2022-12-07T16:52:02;20.60;;;15.10;;
18754;SDS011;35061;47.664;9.166;2022-12-07T16:54:46;20.73;;;14.60;;
18754;SDS011;35061;47.664;9.166;2022-12-07T16:57:16;21.30;;;14.52;;
18754;SDS011;35061;47.664;9.166;2022-12-07T16:59:49;18.42;;;13.40;;
18754;SDS011;35061;47.664;9.166;2022-12-07T17:02:18;19.42;;;13.15;;
18754;SDS011;35061;47.664;9.166;2022-12-07T17:04:46;21.25;;;14.20;;
18754;SDS011;35061;47.664;9.166;2022-12-07T17:07:14;20.25;;;13.40;;
18754;SDS011;35061;47.664;9.166;2022-12-07T17:09:41;18.17;;;12.70;;
18754;SDS011;35061;47.664;9.166;2022-12-07T17:12:09;18.35;;;11.93;;
18754;SDS011;35061;47.664;9.166;2022-12-07T17:14:37;17.65;;;12.23;;
18754;SDS011;35061;47.664;9.166;2022-12-07T17:17:23;16.02;;;11.18;;